createdAt,value
2023-05-14T00:00:47.881Z,10.27
2023-05-14T00:03:14.453Z,12.10
2023-05-14T00:05:48.307Z,10.10
2023-05-14T00:08:14.794Z,11.32
2023-05-14T00:10:41.217Z,11.20
2023-05-14T00:13:07.647Z,10.70
2023-05-14T00:15:34.572Z,9.18
2023-05-14T00:20:29.962Z,10.88
2023-05-14T00:22:56.572Z,10.32
2023-05-14T00:25:23.166Z,11.10
2023-05-14T00:27:52.170Z,10.85
2023-05-14T00:30:18.695Z,10.40
2023-05-14T00:32:45.142Z,11.18
2023-05-14T00:35:11.602Z,10.95
2023-05-14T00:37:39.207Z,11.55
2023-05-14T00:40:07.199Z,10.68
2023-05-14T00:42:33.725Z,10.75
2023-05-14T00:45:00.468Z,10.80
2023-05-14T00:47:27.357Z,11.50
2023-05-14T00:49:57.837Z,10.32
2023-05-14T00:52:25.575Z,9.43
2023-05-14T00:54:52.494Z,10.82
2023-05-14T00:57:19.195Z,11.27
2023-05-14T00:59:45.926Z,12.57
2023-05-14T01:02:12.400Z,12.23
2023-05-14T01:04:39.766Z,9.88
2023-05-14T01:07:21.290Z,10.60
2023-05-14T01:10:01.553Z,10.98
2023-05-14T01:12:45.675Z,11.32
2023-05-14T01:15:24.714Z,10.57
2023-05-14T01:18:03.037Z,10.75
2023-05-14T01:20:29.590Z,10.13
2023-05-14T01:22:56.125Z,11.88
2023-05-14T01:25:22.787Z,10.45
2023-05-14T01:27:53.011Z,10.52
2023-05-14T01:30:27.219Z,11.45
2023-05-14T01:32:56.374Z,11.07
2023-05-14T01:35:32.160Z,11.15
2023-05-14T01:38:02.124Z,10.50
2023-05-14T01:40:29.663Z,10.60
2023-05-14T01:42:56.852Z,10.90
2023-05-14T01:45:26.585Z,11.07
2023-05-14T01:47:53.606Z,9.93
2023-05-14T01:50:20.359Z,10.07
2023-05-14T01:52:48.265Z,9.38
2023-05-14T01:55:15.899Z,11.60
2023-05-14T01:57:42.375Z,11.43
2023-05-14T02:00:09.366Z,11.65
2023-05-14T02:02:35.781Z,12.27
2023-05-14T02:05:02.945Z,11.57
2023-05-14T02:07:30.348Z,11.30
2023-05-14T02:09:56.907Z,11.07
2023-05-14T02:12:23.494Z,10.77
2023-05-14T02:14:49.944Z,11.82
2023-05-14T02:17:17.642Z,11.75
2023-05-14T02:19:44.656Z,11.07
2023-05-14T02:22:13.481Z,12.25
2023-05-14T02:24:43.066Z,11.55
2023-05-14T02:27:09.679Z,11.23
2023-05-14T02:29:36.230Z,12.40
2023-05-14T02:32:02.739Z,11.13
2023-05-14T02:34:35.320Z,11.95
2023-05-14T02:37:01.913Z,11.52
2023-05-14T02:39:30.646Z,10.50
2023-05-14T02:41:57.063Z,11.85
2023-05-14T02:44:26.085Z,12.25
2023-05-14T02:46:52.537Z,11.35
2023-05-14T02:49:18.887Z,11.05
2023-05-14T02:51:45.387Z,10.75
2023-05-14T02:54:11.933Z,12.23
2023-05-14T02:56:39.578Z,11.43
2023-05-14T02:59:09.393Z,11.90
2023-05-14T03:01:36.349Z,11.73
2023-05-14T03:04:03.328Z,11.85
2023-05-14T03:06:32.455Z,12.27
2023-05-14T03:08:58.853Z,11.80
2023-05-14T03:11:25.472Z,13.05
2023-05-14T03:13:51.886Z,12.68
2023-05-14T03:16:18.422Z,11.93
2023-05-14T03:18:44.971Z,12.02
2023-05-14T03:21:11.428Z,12.80
2023-05-14T03:23:38.072Z,13.13
2023-05-14T03:26:04.948Z,12.82
2023-05-14T03:28:31.392Z,12.38
2023-05-14T03:30:57.997Z,11.75
2023-05-14T03:33:24.566Z,11.90
2023-05-14T03:35:51.633Z,11.98
2023-05-14T03:38:18.130Z,10.68
2023-05-14T03:40:45.515Z,12.60
2023-05-14T03:43:11.871Z,11.70
2023-05-14T03:45:40.420Z,11.38
2023-05-14T03:48:06.988Z,10.68
2023-05-14T03:50:33.610Z,10.57
2023-05-14T03:53:00.179Z,10.48
2023-05-14T03:55:33.869Z,12.25
2023-05-14T03:58:00.514Z,11.18
2023-05-14T04:00:27.335Z,11.13
2023-05-14T04:02:54.177Z,11.00
2023-05-14T04:05:20.758Z,11.50
2023-05-14T04:07:47.192Z,10.38
2023-05-14T04:10:14.147Z,10.50
2023-05-14T04:12:40.580Z,9.90
2023-05-14T04:15:10.420Z,10.27
2023-05-14T04:17:36.887Z,11.57
2023-05-14T04:20:04.379Z,11.88
2023-05-14T04:22:30.977Z,10.27
2023-05-14T04:24:57.580Z,10.20
2023-05-14T04:27:24.173Z,10.70
2023-05-14T04:29:50.799Z,10.82
2023-05-14T04:32:18.096Z,10.52
2023-05-14T04:34:44.590Z,9.73
2023-05-14T04:37:10.981Z,10.35
2023-05-14T04:39:37.872Z,9.70
2023-05-14T04:42:04.942Z,9.13
2023-05-14T04:44:31.561Z,10.43
2023-05-14T04:47:00.403Z,10.73
2023-05-14T04:49:27.032Z,10.75
2023-05-14T04:51:58.867Z,9.00
2023-05-14T04:54:25.346Z,10.38
2023-05-14T04:56:51.772Z,9.40
2023-05-14T04:59:18.203Z,9.23
2023-05-14T05:01:45.760Z,10.77
2023-05-14T05:04:12.586Z,9.43
2023-05-14T05:06:39.170Z,9.02
2023-05-14T05:09:05.665Z,9.63
2023-05-14T05:11:32.154Z,8.88
2023-05-14T05:13:58.649Z,8.75
2023-05-14T05:16:25.313Z,8.57
2023-05-14T05:18:51.840Z,9.43
2023-05-14T05:21:20.666Z,10.40
2023-05-14T05:23:47.155Z,9.90
2023-05-14T05:26:13.646Z,10.38
2023-05-14T05:28:42.547Z,9.80
2023-05-14T05:31:09.057Z,9.32
2023-05-14T05:33:38.790Z,10.63
2023-05-14T05:36:05.504Z,10.88
2023-05-14T05:38:31.913Z,9.65
2023-05-14T05:40:58.398Z,8.23
2023-05-14T05:43:24.845Z,10.35
2023-05-14T05:45:51.350Z,8.93
2023-05-14T05:48:20.333Z,11.02
2023-05-14T05:50:50.203Z,10.70
2023-05-14T05:53:16.903Z,9.27
2023-05-14T05:55:43.333Z,10.30
2023-05-14T05:58:09.793Z,9.57
2023-05-14T06:00:36.382Z,9.88
2023-05-14T06:03:02.876Z,8.32
2023-05-14T06:05:29.371Z,9.77
2023-05-14T06:07:55.788Z,9.50
2023-05-14T06:10:22.815Z,9.77
2023-05-14T06:12:49.484Z,10.07
2023-05-14T06:15:16.105Z,9.88
2023-05-14T06:17:42.650Z,9.80
2023-05-14T06:20:09.936Z,10.90
2023-05-14T06:22:36.509Z,8.68
2023-05-14T06:25:03.598Z,9.45
2023-05-14T06:27:30.326Z,9.95
2023-05-14T06:29:56.708Z,11.13
2023-05-14T06:32:23.215Z,10.55
2023-05-14T06:34:49.639Z,10.00
2023-05-14T06:37:16.164Z,8.98
2023-05-14T06:39:50.052Z,10.05
2023-05-14T06:42:19.443Z,10.05
2023-05-14T06:44:45.894Z,8.30
2023-05-14T06:47:12.390Z,9.00
2023-05-14T06:49:39.403Z,7.82
2023-05-14T06:52:06.366Z,8.55
2023-05-14T06:54:32.882Z,8.65
2023-05-14T06:56:59.462Z,8.63
2023-05-14T06:59:26.329Z,8.23
2023-05-14T07:01:52.797Z,8.63
2023-05-14T07:04:19.521Z,7.78
2023-05-14T07:06:46.064Z,6.72
2023-05-14T07:09:16.532Z,7.07
2023-05-14T07:11:43.079Z,6.43
2023-05-14T07:14:09.511Z,7.07
2023-05-14T07:16:36.305Z,5.75
2023-05-14T07:19:02.975Z,6.63
2023-05-14T07:21:36.078Z,6.55
2023-05-14T07:24:02.572Z,5.18
2023-05-14T07:26:29.346Z,5.90
2023-05-14T07:28:55.773Z,6.25
2023-05-14T07:31:22.215Z,5.85
2023-05-14T07:33:48.644Z,7.00
2023-05-14T07:36:15.367Z,5.20
2023-05-14T07:38:41.879Z,7.07
2023-05-14T07:41:08.457Z,10.45
2023-05-14T07:43:34.923Z,5.97
2023-05-14T07:46:04.609Z,4.55
2023-05-14T07:48:31.215Z,5.40
2023-05-14T07:50:57.649Z,4.13
2023-05-14T07:53:24.874Z,4.28
2023-05-14T07:55:51.709Z,3.85
2023-05-14T07:58:18.684Z,4.38
2023-05-14T08:00:45.109Z,4.43
2023-05-14T08:03:11.915Z,3.75
2023-05-14T08:05:38.484Z,3.40
2023-05-14T08:08:04.908Z,4.88
2023-05-14T08:10:34.416Z,3.60
2023-05-14T08:13:01.130Z,4.00
2023-05-14T08:15:28.142Z,4.63
2023-05-14T08:17:54.629Z,4.20
2023-05-14T08:20:21.198Z,4.47
2023-05-14T08:22:47.671Z,4.25
2023-05-14T08:25:14.300Z,4.22
2023-05-14T08:27:40.761Z,4.45
2023-05-14T08:30:07.704Z,3.72
2023-05-14T08:32:34.144Z,3.75
2023-05-14T08:35:00.804Z,3.92
2023-05-14T08:37:27.411Z,3.75
2023-05-14T08:39:53.880Z,4.15
2023-05-14T08:42:22.303Z,3.83
2023-05-14T08:44:53.752Z,3.83
2023-05-14T08:49:54.914Z,3.63
2023-05-14T08:52:23.231Z,3.03
2023-05-14T08:54:52.802Z,4.32
2023-05-14T08:57:20.273Z,3.88
2023-05-14T08:59:47.367Z,3.92
2023-05-14T09:02:15.501Z,3.47
2023-05-14T09:04:42.532Z,3.15
2023-05-14T09:07:09.445Z,3.95
2023-05-14T09:09:36.665Z,4.13
2023-05-14T09:12:03.300Z,3.13
2023-05-14T09:14:29.968Z,4.07
2023-05-14T09:16:57.036Z,3.78
2023-05-14T09:19:24.038Z,3.65
2023-05-14T09:21:50.797Z,3.05
2023-05-14T09:24:25.778Z,3.25
2023-05-14T09:26:57.446Z,3.63
2023-05-14T09:29:28.665Z,4.43
2023-05-14T09:31:56.603Z,2.83
2023-05-14T09:34:35.107Z,3.72
2023-05-14T09:37:05.789Z,3.40
2023-05-14T09:39:33.430Z,3.72
2023-05-14T09:42:02.868Z,3.85
2023-05-14T09:44:29.668Z,3.05
2023-05-14T09:46:56.438Z,3.47
2023-05-14T09:49:23.245Z,3.30
2023-05-14T09:51:51.944Z,3.63
2023-05-14T09:54:18.572Z,4.72
2023-05-14T09:56:45.225Z,3.83
2023-05-14T09:59:11.796Z,3.05
2023-05-14T10:01:38.564Z,4.18
2023-05-14T10:04:08.255Z,3.50
2023-05-14T10:06:39.149Z,4.00
2023-05-14T10:09:13.755Z,3.45
2023-05-14T10:11:43.861Z,30.80
2023-05-14T10:14:39.896Z,4.45
2023-05-14T10:17:07.738Z,12.90
2023-05-14T10:19:37.322Z,4.47
2023-05-14T10:22:05.043Z,4.65
2023-05-14T10:24:32.822Z,4.18
2023-05-14T10:26:59.720Z,4.18
2023-05-14T10:29:37.356Z,4.43
2023-05-14T10:32:06.565Z,3.60
2023-05-14T10:34:34.705Z,3.95
2023-05-14T10:37:02.652Z,3.58
2023-05-14T10:39:42.283Z,3.72
2023-05-14T10:42:11.839Z,4.07
2023-05-14T10:44:42.840Z,4.25
2023-05-14T10:47:11.513Z,4.15
2023-05-14T10:49:43.407Z,4.28
2023-05-14T10:52:11.966Z,3.65
2023-05-14T10:54:38.906Z,3.85
2023-05-14T10:57:11.661Z,3.17
2023-05-14T10:59:44.558Z,4.40
2023-05-14T11:02:41.240Z,3.75
2023-05-14T11:05:14.358Z,3.63
2023-05-14T11:07:46.235Z,4.30
2023-05-14T11:10:17.329Z,3.50
2023-05-14T11:12:46.112Z,3.53
2023-05-14T11:15:15.757Z,3.85
2023-05-14T11:17:43.870Z,3.40
2023-05-14T11:20:11.267Z,3.67
2023-05-14T11:22:45.272Z,3.72
2023-05-14T11:25:20.095Z,3.40
2023-05-14T11:27:48.249Z,3.00
2023-05-14T11:30:16.639Z,3.88
2023-05-14T11:32:45.698Z,3.60
2023-05-14T11:35:12.964Z,3.88
2023-05-14T11:37:44.382Z,3.90
2023-05-14T11:40:19.024Z,4.30
2023-05-14T11:42:45.796Z,3.55
2023-05-14T11:45:13.139Z,3.58
2023-05-14T11:47:41.879Z,4.00
2023-05-14T11:50:09.636Z,5.13
2023-05-14T11:52:41.252Z,4.15
2023-05-14T11:57:38.050Z,4.15
2023-05-14T12:00:09.019Z,5.32
2023-05-14T12:02:36.432Z,4.18
2023-05-14T12:05:03.124Z,4.55
2023-05-14T12:07:30.432Z,3.60
2023-05-14T12:10:01.923Z,3.35
2023-05-14T12:12:34.161Z,3.97
2023-05-14T12:15:00.669Z,4.53
2023-05-14T12:17:27.308Z,4.32
2023-05-14T12:19:53.830Z,3.60
2023-05-14T12:22:21.979Z,3.75
2023-05-14T12:24:55.963Z,3.38
2023-05-14T12:27:27.207Z,3.42
2023-05-14T12:32:46.897Z,3.92
2023-05-14T12:35:13.451Z,3.63
2023-05-14T12:37:40.049Z,3.60
2023-05-14T12:40:12.839Z,3.72
2023-05-14T12:42:39.221Z,3.30
2023-05-14T12:45:09.201Z,3.30
2023-05-14T12:47:36.753Z,4.10
2023-05-14T12:50:03.712Z,4.22
2023-05-14T12:52:38.460Z,3.80
2023-05-14T12:55:07.363Z,3.33
2023-05-14T12:57:35.487Z,3.85
2023-05-14T13:00:06.377Z,3.00
2023-05-14T13:02:32.894Z,3.22
2023-05-14T13:05:05.782Z,4.05
2023-05-14T13:07:32.329Z,4.03
2023-05-14T13:09:58.797Z,4.60
2023-05-14T13:12:25.285Z,3.92
2023-05-14T13:14:54.208Z,4.00
2023-05-14T13:17:20.742Z,3.55
2023-05-14T13:19:47.200Z,3.78
2023-05-14T13:22:14.429Z,4.13
2023-05-14T13:24:40.806Z,4.45
2023-05-14T13:27:07.191Z,3.33
2023-05-14T13:29:33.611Z,3.92
2023-05-14T13:32:00.073Z,3.80
2023-05-14T13:34:26.568Z,3.28
2023-05-14T13:36:53.108Z,3.15
2023-05-14T13:39:22.586Z,3.78
2023-05-14T13:41:50.627Z,3.88
2023-05-14T13:44:17.290Z,3.00
2023-05-14T13:46:44.126Z,3.88
2023-05-14T13:49:11.180Z,3.58
2023-05-14T13:51:40.559Z,4.00
2023-05-14T13:54:07.293Z,3.53
2023-05-14T13:56:33.860Z,3.78
2023-05-14T13:59:00.641Z,3.75
2023-05-14T14:01:27.266Z,4.07
2023-05-14T14:03:53.741Z,3.30
2023-05-14T14:06:20.292Z,3.70
2023-05-14T14:08:46.830Z,3.97
2023-05-14T14:11:16.948Z,4.18
2023-05-14T14:13:46.374Z,3.90
2023-05-14T14:16:13.214Z,4.10
2023-05-14T14:18:39.765Z,4.75
2023-05-14T14:21:06.361Z,4.78
2023-05-14T14:23:32.875Z,4.20
2023-05-14T14:25:59.376Z,4.05
2023-05-14T14:28:26.102Z,3.63
2023-05-14T14:30:52.662Z,3.97
2023-05-14T14:33:19.050Z,3.78
2023-05-14T14:35:46.254Z,3.70
2023-05-14T14:38:12.748Z,3.83
2023-05-14T14:40:39.255Z,4.35
2023-05-14T14:43:05.716Z,4.00
2023-05-14T14:45:32.176Z,4.10
2023-05-14T14:48:25.255Z,3.50
2023-05-14T14:50:52.266Z,4.22
2023-05-14T14:53:19.900Z,4.72
2023-05-14T14:55:46.867Z,4.53
2023-05-14T14:58:13.240Z,3.53
2023-05-14T15:00:40.261Z,4.18
2023-05-14T15:03:08.863Z,5.07
2023-05-14T15:05:35.657Z,4.22
2023-05-14T15:08:05.268Z,4.03
2023-05-14T15:10:32.851Z,4.63
2023-05-14T15:12:59.837Z,5.25
2023-05-14T15:15:26.393Z,5.40
2023-05-14T15:17:52.851Z,5.13
2023-05-14T15:20:19.282Z,4.38
2023-05-14T15:22:45.779Z,4.93
2023-05-14T15:25:12.410Z,4.60
2023-05-14T15:27:38.864Z,4.05
2023-05-14T15:30:06.272Z,5.75
2023-05-14T15:32:33.711Z,3.78
2023-05-14T15:35:01.082Z,3.35
2023-05-14T15:37:27.617Z,4.43
2023-05-14T15:39:54.080Z,5.90
2023-05-14T15:42:20.984Z,4.57
2023-05-14T15:44:47.596Z,3.60
2023-05-14T15:47:14.077Z,3.55
2023-05-14T15:49:40.515Z,4.32
2023-05-14T15:52:07.228Z,4.60
2023-05-14T15:54:33.781Z,4.40
2023-05-14T15:57:00.926Z,4.03
2023-05-14T15:59:27.416Z,4.18
2023-05-14T16:01:53.890Z,4.30
2023-05-14T16:04:23.057Z,3.97
2023-05-14T16:06:50.793Z,4.65
2023-05-14T16:09:17.327Z,5.85
2023-05-14T16:11:43.712Z,4.63
2023-05-14T16:14:10.521Z,5.28
2023-05-14T16:16:36.979Z,5.07
2023-05-14T16:19:03.487Z,4.70
2023-05-14T16:21:29.960Z,4.90
2023-05-14T16:23:56.676Z,5.28
2023-05-14T16:26:23.158Z,5.60
2023-05-14T16:28:49.668Z,5.35
2023-05-14T16:31:16.372Z,6.72
2023-05-14T16:33:42.891Z,6.75
2023-05-14T16:36:09.384Z,5.60
2023-05-14T16:38:41.465Z,4.90
2023-05-14T16:41:14.643Z,6.05
2023-05-14T16:43:41.142Z,6.43
2023-05-14T16:46:08.163Z,5.60
2023-05-14T16:48:34.678Z,5.63
2023-05-14T16:51:01.150Z,5.47
2023-05-14T16:53:27.619Z,6.00
2023-05-14T16:55:54.248Z,5.60
2023-05-14T16:58:20.929Z,5.30
2023-05-14T17:00:47.474Z,5.57
2023-05-14T17:03:14.096Z,5.35
2023-05-14T17:05:40.697Z,7.00
2023-05-14T17:08:07.076Z,5.78
2023-05-14T17:10:33.570Z,6.45
2023-05-14T17:13:00.364Z,13.90
2023-05-14T17:15:26.876Z,10.20
2023-05-14T17:17:55.944Z,6.43
2023-05-14T17:20:22.559Z,6.88
2023-05-14T17:22:50.473Z,7.65
2023-05-14T17:25:18.155Z,7.80
2023-05-14T17:27:46.995Z,8.00
2023-05-14T17:30:13.504Z,8.55
2023-05-14T17:32:44.041Z,7.70
2023-05-14T17:35:13.706Z,7.35
2023-05-14T17:37:42.761Z,6.28
2023-05-14T17:40:09.857Z,6.28
2023-05-14T17:42:36.316Z,6.85
2023-05-14T17:45:02.908Z,6.57
2023-05-14T17:47:29.485Z,7.45
2023-05-14T17:49:56.095Z,6.55
2023-05-14T17:52:22.667Z,5.90
2023-05-14T17:54:49.226Z,5.97
2023-05-14T17:57:15.917Z,6.53
2023-05-14T17:59:42.424Z,7.45
2023-05-14T18:02:08.920Z,6.93
2023-05-14T18:04:35.348Z,6.32
2023-05-14T18:07:03.109Z,6.22
2023-05-14T18:09:29.518Z,6.07
2023-05-14T18:11:56.999Z,6.15
2023-05-14T18:14:23.553Z,5.35
2023-05-14T18:16:50.135Z,5.63
2023-05-14T18:19:16.762Z,5.78
2023-05-14T18:21:43.320Z,6.18
2023-05-14T18:24:09.745Z,8.38
2023-05-14T18:26:36.490Z,5.47
2023-05-14T18:29:02.938Z,6.35
2023-05-14T18:31:29.424Z,6.28
2023-05-14T18:33:55.864Z,6.40
2023-05-14T18:36:22.429Z,6.32
2023-05-14T18:38:48.963Z,5.97
2023-05-14T18:41:15.590Z,7.38
2023-05-14T18:43:42.010Z,6.85
2023-05-14T18:46:12.278Z,6.35
2023-05-14T18:48:38.825Z,6.63
2023-05-14T18:51:05.564Z,6.15
2023-05-14T18:53:32.100Z,5.30
2023-05-14T18:56:00.180Z,5.70
2023-05-14T18:58:26.671Z,5.68
2023-05-14T19:00:53.232Z,6.20
2023-05-14T19:03:23.032Z,5.35
2023-05-14T19:05:51.712Z,5.97
2023-05-14T19:08:18.139Z,6.18
2023-05-14T19:10:44.661Z,5.95
2023-05-14T19:13:11.548Z,5.75
2023-05-14T19:15:38.012Z,5.72
2023-05-14T19:18:04.822Z,5.60
2023-05-14T19:20:31.296Z,4.70
2023-05-14T19:22:57.745Z,5.25
2023-05-14T19:25:27.912Z,5.68
2023-05-14T19:27:55.447Z,5.25
2023-05-14T19:30:23.281Z,5.88
2023-05-14T19:32:51.993Z,5.68
2023-05-14T19:35:20.610Z,5.63
2023-05-14T19:37:47.214Z,4.90
2023-05-14T19:40:13.716Z,5.35
2023-05-14T19:42:42.581Z,5.35
2023-05-14T19:45:10.183Z,5.38
2023-05-14T19:47:36.823Z,5.63
2023-05-14T19:50:03.526Z,5.00
2023-05-14T19:52:29.934Z,6.15
2023-05-14T19:54:56.307Z,5.68
2023-05-14T19:57:22.843Z,5.05
2023-05-14T19:59:49.382Z,5.28
2023-05-14T20:02:18.099Z,5.00
2023-05-14T20:04:45.975Z,5.35
2023-05-14T20:07:15.570Z,5.68
2023-05-14T20:09:42.235Z,5.90
2023-05-14T20:12:09.416Z,5.22
2023-05-14T20:14:36.195Z,5.85
2023-05-14T20:17:06.531Z,6.18
2023-05-14T20:19:33.105Z,5.38
2023-05-14T20:21:59.596Z,5.30
2023-05-14T20:24:26.022Z,5.22
2023-05-14T20:26:52.559Z,5.25
2023-05-14T20:29:18.988Z,4.72
2023-05-14T20:31:45.445Z,5.32
2023-05-14T20:34:11.834Z,5.30
2023-05-14T20:36:41.737Z,6.07
2023-05-14T20:39:09.942Z,5.82
2023-05-14T20:41:36.664Z,6.25
2023-05-14T20:44:03.389Z,6.22
2023-05-14T20:46:29.921Z,6.68
2023-05-14T20:48:57.320Z,6.50
2023-05-14T20:51:26.326Z,6.47
2023-05-14T20:53:52.732Z,5.35
2023-05-14T20:56:19.150Z,6.22
2023-05-14T20:58:45.691Z,5.47
2023-05-14T21:01:12.251Z,5.57
2023-05-14T21:03:38.844Z,5.45
2023-05-14T21:06:05.522Z,5.45
2023-05-14T21:08:35.470Z,6.10
2023-05-14T21:11:01.922Z,5.75
2023-05-14T21:13:28.400Z,5.28
2023-05-14T21:15:54.855Z,6.05
2023-05-14T21:18:26.973Z,5.45
2023-05-14T21:20:53.462Z,5.15
2023-05-14T21:23:19.863Z,5.78
2023-05-14T21:25:46.328Z,5.13
2023-05-14T21:28:15.789Z,5.90
2023-05-14T21:30:44.582Z,6.15
2023-05-14T21:33:11.146Z,5.63
2023-05-14T21:35:37.547Z,6.57
2023-05-14T21:38:04.469Z,6.18
2023-05-14T21:40:31.184Z,6.53
2023-05-14T21:42:57.583Z,6.22
2023-05-14T21:45:24.099Z,5.90
2023-05-14T21:47:50.729Z,6.63
2023-05-14T21:50:17.440Z,6.45
2023-05-14T21:52:43.933Z,6.82
2023-05-14T21:55:13.414Z,6.65
2023-05-14T21:57:40.875Z,7.13
2023-05-14T22:00:11.850Z,7.22
2023-05-14T22:02:38.609Z,8.15
2023-05-14T22:05:05.656Z,8.93
2023-05-14T22:07:32.869Z,10.38
2023-05-14T22:09:59.501Z,10.63
2023-05-14T22:12:26.741Z,10.30
2023-05-14T22:14:53.258Z,10.10
2023-05-14T22:17:19.715Z,10.68
2023-05-14T22:19:46.296Z,10.80
2023-05-14T22:22:16.758Z,11.23
2023-05-14T22:24:43.224Z,10.85
2023-05-14T22:27:09.660Z,11.57
2023-05-14T22:29:38.141Z,11.68
2023-05-14T22:32:07.586Z,12.32
2023-05-14T22:34:34.031Z,11.80
2023-05-14T22:37:00.533Z,12.65
2023-05-14T22:39:33.058Z,12.70
2023-05-14T22:41:59.601Z,12.32
2023-05-14T22:44:27.725Z,12.20
2023-05-14T22:46:55.811Z,12.32
2023-05-14T22:49:22.468Z,12.25
2023-05-14T22:51:52.428Z,14.15
2023-05-14T22:54:18.948Z,12.82
2023-05-14T22:56:45.505Z,13.77
2023-05-14T22:59:11.847Z,13.98
2023-05-14T23:01:38.441Z,13.18
2023-05-14T23:04:04.988Z,14.65
2023-05-14T23:06:31.852Z,13.73
2023-05-14T23:08:58.349Z,14.25
2023-05-14T23:11:26.004Z,14.02
2023-05-14T23:13:52.489Z,13.52
2023-05-14T23:16:19.085Z,13.40
2023-05-14T23:18:45.757Z,14.35
2023-05-14T23:21:13.311Z,14.88
2023-05-14T23:23:39.844Z,14.32
2023-05-14T23:26:07.433Z,15.68
2023-05-14T23:28:37.069Z,14.45
2023-05-14T23:31:03.458Z,14.82
2023-05-14T23:33:29.872Z,16.95
2023-05-14T23:35:56.385Z,16.52
2023-05-14T23:38:22.798Z,14.98
2023-05-14T23:40:49.369Z,15.10
2023-05-14T23:43:15.850Z,15.80
2023-05-14T23:45:42.313Z,15.77
2023-05-14T23:48:08.795Z,15.95
2023-05-14T23:50:35.300Z,12.95
2023-05-14T23:53:04.986Z,15.45
2023-05-14T23:55:31.498Z,15.75
2023-05-14T23:57:58.152Z,18.77
